sensor_id;sensor_type;location;lat;lon;timestamp;P1;durP1;ratioP1;P2;durP2;ratioP2
2259;SDS011;333;48.800;9.530;2023-05-29T00:01:22;11.93;;;8.23;;
2259;SDS011;333;48.800;9.530;2023-05-29T00:03:51;8.40;;;7.60;;
2259;SDS011;333;48.800;9.530;2023-05-29T00:06:18;8.20;;;6.93;;
2259;SDS011;333;48.800;9.530;2023-05-29T00:08:45;9.03;;;7.00;;
2259;SDS011;333;48.800;9.530;2023-05-29T00:11:12;10.83;;;8.40;;
2259;SDS011;333;48.800;9.530;2023-05-29T00:13:39;9.17;;;7.33;;
2259;SDS011;333;48.800;9.530;2023-05-29T00:16:07;8.40;;;7.40;;
2259;SDS011;333;48.800;9.530;2023-05-29T00:18:34;9.60;;;7.33;;
2259;SDS011;333;48.800;9.530;2023-05-29T00:21:03;8.73;;;7.17;;
2259;SDS011;333;48.800;9.530;2023-05-29T00:23:31;7.83;;;6.67;;
2259;SDS011;333;48.800;9.530;2023-05-29T00:25:58;9.40;;;7.20;;
2259;SDS011;333;48.800;9.530;2023-05-29T00:28:25;8.40;;;7.50;;
2259;SDS011;333;48.800;9.530;2023-05-29T00:30:52;9.00;;;7.00;;
2259;SDS011;333;48.800;9.530;2023-05-29T00:33:19;9.00;;;6.43;;
2259;SDS011;333;48.800;9.530;2023-05-29T00:35:46;7.97;;;6.73;;
2259;SDS011;333;48.800;9.530;2023-05-29T00:38:15;10.37;;;8.00;;
2259;SDS011;333;48.800;9.530;2023-05-29T00:40:42;11.20;;;8.17;;
2259;SDS011;333;48.800;9.530;2023-05-29T00:43:09;9.67;;;6.93;;
2259;SDS011;333;48.800;9.530;2023-05-29T00:45:36;7.70;;;6.90;;
2259;SDS011;333;48.800;9.530;2023-05-29T00:48:03;8.33;;;7.53;;
2259;SDS011;333;48.800;9.530;2023-05-29T00:50:31;9.43;;;6.90;;
2259;SDS011;333;48.800;9.530;2023-05-29T00:52:58;8.10;;;7.30;;
2259;SDS011;333;48.800;9.530;2023-05-29T00:55:28;11.13;;;7.43;;
2259;SDS011;333;48.800;9.530;2023-05-29T00:57:55;9.20;;;7.33;;
2259;SDS011;333;48.800;9.530;2023-05-29T01:00:22;7.93;;;7.10;;
2259;SDS011;333;48.800;9.530;2023-05-29T01:02:49;8.30;;;7.50;;
2259;SDS011;333;48.800;9.530;2023-05-29T01:05:18;7.93;;;6.70;;
2259;SDS011;333;48.800;9.530;2023-05-29T01:07:46;7.90;;;7.10;;
2259;SDS011;333;48.800;9.530;2023-05-29T01:10:14;8.63;;;7.73;;
2259;SDS011;333;48.800;9.530;2023-05-29T01:12:49;10.23;;;7.70;;
2259;SDS011;333;48.800;9.530;2023-05-29T01:15:26;9.40;;;7.83;;
2259;SDS011;333;48.800;9.530;2023-05-29T01:18:07;8.93;;;6.77;;
2259;SDS011;333;48.800;9.530;2023-05-29T01:20:44;9.57;;;6.43;;
2259;SDS011;333;48.800;9.530;2023-05-29T01:23:36;13.67;;;7.77;;
2259;SDS011;333;48.800;9.530;2023-05-29T01:26:21;11.97;;;7.50;;
2259;SDS011;333;48.800;9.530;2023-05-29T01:29:02;8.83;;;7.20;;
2259;SDS011;333;48.800;9.530;2023-05-29T01:31:32;8.77;;;6.90;;
2259;SDS011;333;48.800;9.530;2023-05-29T01:34:02;7.97;;;6.70;;
2259;SDS011;333;48.800;9.530;2023-05-29T01:36:29;8.40;;;7.10;;
2259;SDS011;333;48.800;9.530;2023-05-29T01:38:57;10.50;;;7.27;;
2259;SDS011;333;48.800;9.530;2023-05-29T01:41:25;9.57;;;6.97;;
2259;SDS011;333;48.800;9.530;2023-05-29T01:43:55;11.77;;;7.47;;
2259;SDS011;333;48.800;9.530;2023-05-29T01:46:24;9.00;;;6.70;;
2259;SDS011;333;48.800;9.530;2023-05-29T01:48:51;10.60;;;7.23;;
2259;SDS011;333;48.800;9.530;2023-05-29T01:51:20;10.60;;;7.90;;
2259;SDS011;333;48.800;9.530;2023-05-29T01:53:47;8.63;;;7.60;;
2259;SDS011;333;48.800;9.530;2023-05-29T01:56:14;8.03;;;6.60;;
2259;SDS011;333;48.800;9.530;2023-05-29T01:58:41;7.47;;;6.83;;
2259;SDS011;333;48.800;9.530;2023-05-29T02:01:10;7.87;;;7.00;;
2259;SDS011;333;48.800;9.530;2023-05-29T02:03:38;10.17;;;7.50;;
2259;SDS011;333;48.800;9.530;2023-05-29T02:06:05;7.77;;;6.23;;
2259;SDS011;333;48.800;9.530;2023-05-29T02:08:32;8.30;;;6.53;;
2259;SDS011;333;48.800;9.530;2023-05-29T02:11:00;7.47;;;6.60;;
2259;SDS011;333;48.800;9.530;2023-05-29T02:13:27;8.70;;;6.87;;
2259;SDS011;333;48.800;9.530;2023-05-29T02:15:54;8.83;;;7.20;;
2259;SDS011;333;48.800;9.530;2023-05-29T02:18:22;10.80;;;7.53;;
2259;SDS011;333;48.800;9.530;2023-05-29T02:20:50;7.83;;;7.00;;
2259;SDS011;333;48.800;9.530;2023-05-29T02:23:17;7.17;;;6.47;;
2259;SDS011;333;48.800;9.530;2023-05-29T02:25:45;7.20;;;5.97;;
2259;SDS011;333;48.800;9.530;2023-05-29T02:28:12;8.80;;;6.70;;
2259;SDS011;333;48.800;9.530;2023-05-29T02:30:39;8.27;;;6.60;;
2259;SDS011;333;48.800;9.530;2023-05-29T02:33:06;9.27;;;6.97;;
2259;SDS011;333;48.800;9.530;2023-05-29T02:35:35;8.10;;;7.27;;
2259;SDS011;333;48.800;9.530;2023-05-29T02:38:02;7.93;;;7.10;;
2259;SDS011;333;48.800;9.530;2023-05-29T02:40:29;8.30;;;7.53;;
2259;SDS011;333;48.800;9.530;2023-05-29T02:42:56;7.40;;;6.70;;
2259;SDS011;333;48.800;9.530;2023-05-29T02:45:23;9.03;;;7.63;;
2259;SDS011;333;48.800;9.530;2023-05-29T02:47:50;8.43;;;6.93;;
2259;SDS011;333;48.800;9.530;2023-05-29T02:50:17;7.90;;;7.10;;
2259;SDS011;333;48.800;9.530;2023-05-29T02:52:46;7.87;;;7.00;;
2259;SDS011;333;48.800;9.530;2023-05-29T02:55:12;9.60;;;6.97;;
2259;SDS011;333;48.800;9.530;2023-05-29T02:57:41;7.87;;;6.93;;
2259;SDS011;333;48.800;9.530;2023-05-29T03:00:08;8.10;;;6.93;;
2259;SDS011;333;48.800;9.530;2023-05-29T03:02:39;8.20;;;7.00;;
2259;SDS011;333;48.800;9.530;2023-05-29T03:05:06;8.77;;;7.93;;
2259;SDS011;333;48.800;9.530;2023-05-29T03:07:34;7.70;;;6.80;;
2259;SDS011;333;48.800;9.530;2023-05-29T03:10:03;10.40;;;6.63;;
2259;SDS011;333;48.800;9.530;2023-05-29T03:12:30;7.60;;;6.83;;
2259;SDS011;333;48.800;9.530;2023-05-29T03:14:57;10.20;;;6.40;;
2259;SDS011;333;48.800;9.530;2023-05-29T03:17:24;9.10;;;6.67;;
2259;SDS011;333;48.800;9.530;2023-05-29T03:19:51;8.80;;;6.40;;
2259;SDS011;333;48.800;9.530;2023-05-29T03:22:18;8.80;;;8.00;;
2259;SDS011;333;48.800;9.530;2023-05-29T03:24:45;10.27;;;8.17;;
2259;SDS011;333;48.800;9.530;2023-05-29T03:27:14;13.00;;;7.67;;
2259;SDS011;333;48.800;9.530;2023-05-29T03:29:41;7.67;;;6.97;;
2259;SDS011;333;48.800;9.530;2023-05-29T03:32:08;8.17;;;7.37;;
2259;SDS011;333;48.800;9.530;2023-05-29T03:34:35;10.70;;;7.50;;
2259;SDS011;333;48.800;9.530;2023-05-29T03:37:02;9.33;;;7.60;;
2259;SDS011;333;48.800;9.530;2023-05-29T03:39:29;7.80;;;7.00;;
2259;SDS011;333;48.800;9.530;2023-05-29T03:41:56;10.13;;;7.20;;
2259;SDS011;333;48.800;9.530;2023-05-29T03:44:24;8.73;;;6.53;;
2259;SDS011;333;48.800;9.530;2023-05-29T03:46:51;7.37;;;6.57;;
2259;SDS011;333;48.800;9.530;2023-05-29T03:49:18;9.07;;;8.17;;
2259;SDS011;333;48.800;9.530;2023-05-29T03:51:45;10.20;;;7.70;;
2259;SDS011;333;48.800;9.530;2023-05-29T03:54:12;8.33;;;6.20;;
2259;SDS011;333;48.800;9.530;2023-05-29T03:56:40;11.83;;;6.90;;
2259;SDS011;333;48.800;9.530;2023-05-29T03:59:07;6.83;;;6.23;;
2259;SDS011;333;48.800;9.530;2023-05-29T04:01:35;8.47;;;7.10;;
2259;SDS011;333;48.800;9.530;2023-05-29T04:04:02;11.87;;;7.60;;
2259;SDS011;333;48.800;9.530;2023-05-29T04:06:29;8.30;;;7.50;;
2259;SDS011;333;48.800;9.530;2023-05-29T04:08:57;8.73;;;6.90;;
2259;SDS011;333;48.800;9.530;2023-05-29T04:11:24;9.13;;;7.07;;
2259;SDS011;333;48.800;9.530;2023-05-29T04:13:51;8.53;;;6.67;;
2259;SDS011;333;48.800;9.530;2023-05-29T04:16:18;9.90;;;7.40;;
2259;SDS011;333;48.800;9.530;2023-05-29T04:18:46;7.17;;;6.47;;
2259;SDS011;333;48.800;9.530;2023-05-29T04:21:13;9.50;;;7.53;;
2259;SDS011;333;48.800;9.530;2023-05-29T04:23:40;10.17;;;7.13;;
2259;SDS011;333;48.800;9.530;2023-05-29T04:26:07;7.10;;;6.40;;
2259;SDS011;333;48.800;9.530;2023-05-29T04:28:35;7.53;;;6.70;;
2259;SDS011;333;48.800;9.530;2023-05-29T04:31:03;7.20;;;6.47;;
2259;SDS011;333;48.800;9.530;2023-05-29T04:33:31;8.77;;;6.90;;
2259;SDS011;333;48.800;9.530;2023-05-29T04:35:59;8.20;;;6.77;;
2259;SDS011;333;48.800;9.530;2023-05-29T04:38:28;8.83;;;6.57;;
2259;SDS011;333;48.800;9.530;2023-05-29T04:40:56;7.47;;;6.57;;
2259;SDS011;333;48.800;9.530;2023-05-29T04:43:23;7.77;;;6.90;;
2259;SDS011;333;48.800;9.530;2023-05-29T04:45:51;7.37;;;6.20;;
2259;SDS011;333;48.800;9.530;2023-05-29T04:48:18;8.80;;;6.97;;
2259;SDS011;333;48.800;9.530;2023-05-29T04:50:45;9.67;;;6.53;;
2259;SDS011;333;48.800;9.530;2023-05-29T04:53:15;6.93;;;6.23;;
2259;SDS011;333;48.800;9.530;2023-05-29T04:55:42;9.23;;;7.10;;
2259;SDS011;333;48.800;9.530;2023-05-29T04:58:09;18.40;;;7.00;;
2259;SDS011;333;48.800;9.530;2023-05-29T05:00:37;7.53;;;6.50;;
2259;SDS011;333;48.800;9.530;2023-05-29T05:03:04;7.33;;;6.57;;
2259;SDS011;333;48.800;9.530;2023-05-29T05:05:31;7.03;;;6.33;;
2259;SDS011;333;48.800;9.530;2023-05-29T05:07:58;10.77;;;7.27;;
2259;SDS011;333;48.800;9.530;2023-05-29T05:10:26;7.00;;;6.27;;
2259;SDS011;333;48.800;9.530;2023-05-29T05:12:53;7.53;;;6.17;;
2259;SDS011;333;48.800;9.530;2023-05-29T05:15:20;9.27;;;6.30;;
2259;SDS011;333;48.800;9.530;2023-05-29T05:17:48;6.57;;;5.97;;
2259;SDS011;333;48.800;9.530;2023-05-29T05:20:15;8.30;;;7.27;;
2259;SDS011;333;48.800;9.530;2023-05-29T05:22:42;7.73;;;6.33;;
2259;SDS011;333;48.800;9.530;2023-05-29T05:25:09;8.40;;;6.63;;
2259;SDS011;333;48.800;9.530;2023-05-29T05:27:38;8.03;;;6.43;;
2259;SDS011;333;48.800;9.530;2023-05-29T05:30:05;7.90;;;6.33;;
2259;SDS011;333;48.800;9.530;2023-05-29T05:32:33;8.90;;;5.90;;
2259;SDS011;333;48.800;9.530;2023-05-29T05:35:01;7.00;;;5.83;;
2259;SDS011;333;48.800;9.530;2023-05-29T05:37:28;7.80;;;6.13;;
2259;SDS011;333;48.800;9.530;2023-05-29T05:39:55;5.83;;;5.20;;
2259;SDS011;333;48.800;9.530;2023-05-29T05:42:23;8.53;;;5.73;;
2259;SDS011;333;48.800;9.530;2023-05-29T05:44:52;6.70;;;6.10;;
2259;SDS011;333;48.800;9.530;2023-05-29T05:47:19;8.83;;;5.90;;
2259;SDS011;333;48.800;9.530;2023-05-29T05:49:46;6.20;;;5.37;;
2259;SDS011;333;48.800;9.530;2023-05-29T05:52:14;8.07;;;6.20;;
2259;SDS011;333;48.800;9.530;2023-05-29T05:54:42;7.03;;;5.93;;
2259;SDS011;333;48.800;9.530;2023-05-29T05:57:09;7.17;;;6.40;;
2259;SDS011;333;48.800;9.530;2023-05-29T05:59:36;7.57;;;6.87;;
2259;SDS011;333;48.800;9.530;2023-05-29T06:02:05;7.87;;;6.13;;
2259;SDS011;333;48.800;9.530;2023-05-29T06:04:32;6.70;;;6.00;;
2259;SDS011;333;48.800;9.530;2023-05-29T06:06:59;6.80;;;6.10;;
2259;SDS011;333;48.800;9.530;2023-05-29T06:09:26;7.67;;;6.97;;
2259;SDS011;333;48.800;9.530;2023-05-29T06:11:54;8.77;;;5.87;;
2259;SDS011;333;48.800;9.530;2023-05-29T06:14:21;6.23;;;5.63;;
2259;SDS011;333;48.800;9.530;2023-05-29T06:16:48;8.33;;;5.00;;
2259;SDS011;333;48.800;9.530;2023-05-29T06:19:17;7.70;;;5.70;;
2259;SDS011;333;48.800;9.530;2023-05-29T06:21:44;6.80;;;5.70;;
2259;SDS011;333;48.800;9.530;2023-05-29T06:24:11;6.27;;;5.50;;
2259;SDS011;333;48.800;9.530;2023-05-29T06:26:39;6.90;;;6.10;;
2259;SDS011;333;48.800;9.530;2023-05-29T06:29:06;7.23;;;6.03;;
2259;SDS011;333;48.800;9.530;2023-05-29T06:31:33;6.97;;;5.93;;
2259;SDS011;333;48.800;9.530;2023-05-29T06:34:00;7.20;;;5.97;;
2259;SDS011;333;48.800;9.530;2023-05-29T06:36:28;8.20;;;6.37;;
2259;SDS011;333;48.800;9.530;2023-05-29T06:38:57;7.10;;;6.40;;
2259;SDS011;333;48.800;9.530;2023-05-29T06:41:24;6.97;;;6.33;;
2259;SDS011;333;48.800;9.530;2023-05-29T06:43:51;7.57;;;5.50;;
2259;SDS011;333;48.800;9.530;2023-05-29T06:46:18;7.10;;;6.40;;
2259;SDS011;333;48.800;9.530;2023-05-29T06:48:45;7.33;;;6.50;;
2259;SDS011;333;48.800;9.530;2023-05-29T06:51:13;10.20;;;6.83;;
2259;SDS011;333;48.800;9.530;2023-05-29T06:53:42;7.73;;;7.03;;
2259;SDS011;333;48.800;9.530;2023-05-29T06:56:09;6.70;;;6.10;;
2259;SDS011;333;48.800;9.530;2023-05-29T06:58:36;8.23;;;7.30;;
2259;SDS011;333;48.800;9.530;2023-05-29T07:01:03;10.10;;;7.53;;
2259;SDS011;333;48.800;9.530;2023-05-29T07:03:30;6.00;;;5.40;;
2259;SDS011;333;48.800;9.530;2023-05-29T07:05:58;8.87;;;5.37;;
2259;SDS011;333;48.800;9.530;2023-05-29T07:08:25;6.97;;;6.07;;
2259;SDS011;333;48.800;9.530;2023-05-29T07:10:55;5.70;;;5.10;;
2259;SDS011;333;48.800;9.530;2023-05-29T07:13:22;6.00;;;5.40;;
2259;SDS011;333;48.800;9.530;2023-05-29T07:15:51;8.77;;;5.80;;
2259;SDS011;333;48.800;9.530;2023-05-29T07:18:18;6.03;;;5.43;;
2259;SDS011;333;48.800;9.530;2023-05-29T07:20:45;10.87;;;6.10;;
2259;SDS011;333;48.800;9.530;2023-05-29T07:23:12;9.17;;;6.23;;
2259;SDS011;333;48.800;9.530;2023-05-29T07:25:39;5.67;;;5.10;;
2259;SDS011;333;48.800;9.530;2023-05-29T07:28:08;7.30;;;5.50;;
2259;SDS011;333;48.800;9.530;2023-05-29T07:30:35;6.57;;;5.93;;
2259;SDS011;333;48.800;9.530;2023-05-29T07:33:02;7.03;;;5.10;;
2259;SDS011;333;48.800;9.530;2023-05-29T07:35:29;7.53;;;5.70;;
2259;SDS011;333;48.800;9.530;2023-05-29T07:37:58;5.53;;;5.00;;
2259;SDS011;333;48.800;9.530;2023-05-29T07:40:25;7.10;;;5.00;;
2259;SDS011;333;48.800;9.530;2023-05-29T07:42:52;7.70;;;5.47;;
2259;SDS011;333;48.800;9.530;2023-05-29T07:45:20;6.10;;;5.50;;
2259;SDS011;333;48.800;9.530;2023-05-29T07:47:47;6.53;;;5.83;;
2259;SDS011;333;48.800;9.530;2023-05-29T07:50:14;6.03;;;5.33;;
2259;SDS011;333;48.800;9.530;2023-05-29T07:52:42;7.10;;;5.97;;
2259;SDS011;333;48.800;9.530;2023-05-29T07:55:09;6.50;;;5.60;;
2259;SDS011;333;48.800;9.530;2023-05-29T07:57:36;6.63;;;5.50;;
2259;SDS011;333;48.800;9.530;2023-05-29T08:00:04;6.87;;;6.27;;
2259;SDS011;333;48.800;9.530;2023-05-29T08:02:34;6.13;;;5.60;;
2259;SDS011;333;48.800;9.530;2023-05-29T08:05:01;6.77;;;5.67;;
2259;SDS011;333;48.800;9.530;2023-05-29T08:07:28;6.67;;;5.90;;
2259;SDS011;333;48.800;9.530;2023-05-29T08:09:57;5.30;;;4.73;;
2259;SDS011;333;48.800;9.530;2023-05-29T08:12:24;10.30;;;5.07;;
2259;SDS011;333;48.800;9.530;2023-05-29T08:14:51;5.90;;;5.20;;
2259;SDS011;333;48.800;9.530;2023-05-29T08:17:18;7.03;;;5.67;;
2259;SDS011;333;48.800;9.530;2023-05-29T08:19:46;5.43;;;4.93;;
2259;SDS011;333;48.800;9.530;2023-05-29T08:22:13;8.40;;;6.43;;
2259;SDS011;333;48.800;9.530;2023-05-29T08:24:41;5.80;;;5.20;;
2259;SDS011;333;48.800;9.530;2023-05-29T08:27:08;6.73;;;5.70;;
2259;SDS011;333;48.800;9.530;2023-05-29T08:29:35;6.20;;;5.60;;
2259;SDS011;333;48.800;9.530;2023-05-29T08:32:03;6.10;;;5.60;;
2259;SDS011;333;48.800;9.530;2023-05-29T08:34:30;7.03;;;6.00;;
2259;SDS011;333;48.800;9.530;2023-05-29T08:37:02;6.80;;;5.70;;
2259;SDS011;333;48.800;9.530;2023-05-29T08:39:30;6.73;;;6.00;;
2259;SDS011;333;48.800;9.530;2023-05-29T08:41:59;7.40;;;6.50;;
2259;SDS011;333;48.800;9.530;2023-05-29T08:44:32;7.80;;;7.00;;
2259;SDS011;333;48.800;9.530;2023-05-29T08:47:00;6.27;;;5.73;;
2259;SDS011;333;48.800;9.530;2023-05-29T08:49:29;7.60;;;5.70;;
2259;SDS011;333;48.800;9.530;2023-05-29T08:52:06;5.93;;;5.37;;
2259;SDS011;333;48.800;9.530;2023-05-29T08:54:36;5.60;;;5.10;;
2259;SDS011;333;48.800;9.530;2023-05-29T08:57:05;6.03;;;5.43;;
2259;SDS011;333;48.800;9.530;2023-05-29T08:59:32;6.33;;;5.53;;
2259;SDS011;333;48.800;9.530;2023-05-29T09:02:00;5.57;;;4.97;;
2259;SDS011;333;48.800;9.530;2023-05-29T09:04:27;5.40;;;4.90;;
2259;SDS011;333;48.800;9.530;2023-05-29T09:06:55;6.07;;;5.00;;
2259;SDS011;333;48.800;9.530;2023-05-29T09:09:26;6.57;;;4.50;;
2259;SDS011;333;48.800;9.530;2023-05-29T09:11:53;8.37;;;5.00;;
2259;SDS011;333;48.800;9.530;2023-05-29T09:14:34;5.00;;;3.77;;
2259;SDS011;333;48.800;9.530;2023-05-29T09:17:02;4.80;;;4.27;;
2259;SDS011;333;48.800;9.530;2023-05-29T09:19:30;5.03;;;4.60;;
2259;SDS011;333;48.800;9.530;2023-05-29T09:22:00;5.33;;;4.90;;
2259;SDS011;333;48.800;9.530;2023-05-29T09:24:30;8.43;;;4.50;;
2259;SDS011;333;48.800;9.530;2023-05-29T09:26:59;7.17;;;5.10;;
2259;SDS011;333;48.800;9.530;2023-05-29T09:29:27;9.73;;;4.73;;
2259;SDS011;333;48.800;9.530;2023-05-29T09:31:57;5.30;;;4.40;;
2259;SDS011;333;48.800;9.530;2023-05-29T09:34:24;5.27;;;4.77;;
2259;SDS011;333;48.800;9.530;2023-05-29T09:36:52;5.43;;;4.23;;
2259;SDS011;333;48.800;9.530;2023-05-29T09:39:21;4.93;;;4.43;;
2259;SDS011;333;48.800;9.530;2023-05-29T09:41:49;6.17;;;4.93;;
2259;SDS011;333;48.800;9.530;2023-05-29T09:44:20;5.73;;;4.63;;
2259;SDS011;333;48.800;9.530;2023-05-29T09:46:48;6.27;;;5.17;;
2259;SDS011;333;48.800;9.530;2023-05-29T09:49:15;7.83;;;5.07;;
2259;SDS011;333;48.800;9.530;2023-05-29T09:51:45;5.80;;;4.50;;
2259;SDS011;333;48.800;9.530;2023-05-29T09:54:14;6.20;;;4.70;;
2259;SDS011;333;48.800;9.530;2023-05-29T09:56:42;5.00;;;4.50;;
2259;SDS011;333;48.800;9.530;2023-05-29T09:59:12;6.93;;;4.00;;
2259;SDS011;333;48.800;9.530;2023-05-29T10:01:40;4.93;;;4.43;;
2259;SDS011;333;48.800;9.530;2023-05-29T10:04:09;4.60;;;4.10;;
2259;SDS011;333;48.800;9.530;2023-05-29T10:06:37;4.67;;;4.27;;
2259;SDS011;333;48.800;9.530;2023-05-29T10:09:08;5.83;;;4.50;;
2259;SDS011;333;48.800;9.530;2023-05-29T10:11:37;4.53;;;4.10;;
2259;SDS011;333;48.800;9.530;2023-05-29T10:14:06;5.60;;;4.47;;
2259;SDS011;333;48.800;9.530;2023-05-29T10:16:40;5.60;;;4.87;;
2259;SDS011;333;48.800;9.530;2023-05-29T10:19:10;6.77;;;4.73;;
2259;SDS011;333;48.800;9.530;2023-05-29T10:21:39;7.13;;;4.43;;
2259;SDS011;333;48.800;9.530;2023-05-29T10:24:07;5.87;;;4.67;;
2259;SDS011;333;48.800;9.530;2023-05-29T10:26:38;5.73;;;4.13;;
2259;SDS011;333;48.800;9.530;2023-05-29T10:29:08;6.60;;;3.93;;
2259;SDS011;333;48.800;9.530;2023-05-29T10:31:52;4.97;;;4.43;;
2259;SDS011;333;48.800;9.530;2023-05-29T10:34:31;4.27;;;3.93;;
2259;SDS011;333;48.800;9.530;2023-05-29T10:37:09;7.03;;;4.43;;
2259;SDS011;333;48.800;9.530;2023-05-29T10:39:44;5.50;;;4.37;;
2259;SDS011;333;48.800;9.530;2023-05-29T10:45:07;6.67;;;4.47;;
2259;SDS011;333;48.800;9.530;2023-05-29T10:47:35;4.90;;;4.30;;
2259;SDS011;333;48.800;9.530;2023-05-29T10:50:03;6.33;;;3.87;;
2259;SDS011;333;48.800;9.530;2023-05-29T10:52:31;4.77;;;4.30;;
2259;SDS011;333;48.800;9.530;2023-05-29T10:54:58;4.23;;;3.77;;
2259;SDS011;333;48.800;9.530;2023-05-29T10:57:28;4.27;;;3.67;;
2259;SDS011;333;48.800;9.530;2023-05-29T11:00:05;4.27;;;3.93;;
2259;SDS011;333;48.800;9.530;2023-05-29T11:02:40;4.77;;;4.20;;
2259;SDS011;333;48.800;9.530;2023-05-29T11:05:23;6.43;;;3.97;;
2259;SDS011;333;48.800;9.530;2023-05-29T11:07:51;5.23;;;4.20;;
2259;SDS011;333;48.800;9.530;2023-05-29T11:13:11;4.10;;;3.70;;
2259;SDS011;333;48.800;9.530;2023-05-29T11:16:03;6.30;;;3.60;;
2259;SDS011;333;48.800;9.530;2023-05-29T11:18:40;3.80;;;3.50;;
2259;SDS011;333;48.800;9.530;2023-05-29T11:24:13;4.10;;;3.70;;
2259;SDS011;333;48.800;9.530;2023-05-29T11:26:47;4.00;;;3.70;;
2259;SDS011;333;48.800;9.530;2023-05-29T11:29:14;4.10;;;3.80;;
2259;SDS011;333;48.800;9.530;2023-05-29T11:31:41;5.53;;;4.07;;
2259;SDS011;333;48.800;9.530;2023-05-29T11:34:14;8.07;;;3.70;;
2259;SDS011;333;48.800;9.530;2023-05-29T11:36:41;7.10;;;3.20;;
2259;SDS011;333;48.800;9.530;2023-05-29T11:39:08;4.83;;;4.17;;
2259;SDS011;333;48.800;9.530;2023-05-29T11:41:35;4.83;;;4.37;;
2259;SDS011;333;48.800;9.530;2023-05-29T11:44:04;4.27;;;3.97;;
2259;SDS011;333;48.800;9.530;2023-05-29T11:46:32;6.37;;;3.87;;
2259;SDS011;333;48.800;9.530;2023-05-29T11:48:59;5.07;;;4.60;;
2259;SDS011;333;48.800;9.530;2023-05-29T11:51:28;7.00;;;4.70;;
2259;SDS011;333;48.800;9.530;2023-05-29T11:53:56;7.13;;;4.60;;
2259;SDS011;333;48.800;9.530;2023-05-29T11:56:24;4.27;;;3.97;;
2259;SDS011;333;48.800;9.530;2023-05-29T11:58:51;5.03;;;4.57;;
2259;SDS011;333;48.800;9.530;2023-05-29T12:01:21;4.70;;;4.30;;
2259;SDS011;333;48.800;9.530;2023-05-29T12:03:50;4.03;;;3.73;;
2259;SDS011;333;48.800;9.530;2023-05-29T12:06:31;4.97;;;4.23;;
2259;SDS011;333;48.800;9.530;2023-05-29T12:08:59;4.53;;;4.10;;
2259;SDS011;333;48.800;9.530;2023-05-29T12:11:26;4.53;;;4.10;;
2259;SDS011;333;48.800;9.530;2023-05-29T12:13:57;5.57;;;4.23;;
2259;SDS011;333;48.800;9.530;2023-05-29T12:16:24;5.10;;;4.10;;
2259;SDS011;333;48.800;9.530;2023-05-29T12:18:52;4.50;;;4.10;;
2259;SDS011;333;48.800;9.530;2023-05-29T12:21:21;4.30;;;3.90;;
2259;SDS011;333;48.800;9.530;2023-05-29T12:23:52;5.00;;;4.50;;
2259;SDS011;333;48.800;9.530;2023-05-29T12:26:21;4.13;;;3.70;;
2259;SDS011;333;48.800;9.530;2023-05-29T12:28:50;4.60;;;4.10;;
2259;SDS011;333;48.800;9.530;2023-05-29T12:31:25;5.27;;;4.17;;
2259;SDS011;333;48.800;9.530;2023-05-29T12:33:57;4.17;;;3.67;;
2259;SDS011;333;48.800;9.530;2023-05-29T12:36:26;6.00;;;4.70;;
2259;SDS011;333;48.800;9.530;2023-05-29T12:38:54;4.00;;;3.57;;
2259;SDS011;333;48.800;9.530;2023-05-29T12:41:26;4.20;;;3.87;;
2259;SDS011;333;48.800;9.530;2023-05-29T12:43:54;5.63;;;5.13;;
2259;SDS011;333;48.800;9.530;2023-05-29T12:46:21;4.70;;;4.20;;
2259;SDS011;333;48.800;9.530;2023-05-29T12:48:49;4.20;;;3.80;;
2259;SDS011;333;48.800;9.530;2023-05-29T12:51:22;4.73;;;4.33;;
2259;SDS011;333;48.800;9.530;2023-05-29T12:53:49;6.40;;;4.20;;
2259;SDS011;333;48.800;9.530;2023-05-29T12:56:21;4.43;;;4.03;;
2259;SDS011;333;48.800;9.530;2023-05-29T12:58:51;4.13;;;3.73;;
2259;SDS011;333;48.800;9.530;2023-05-29T13:01:18;5.40;;;4.90;;
2259;SDS011;333;48.800;9.530;2023-05-29T13:03:46;8.23;;;4.63;;
2259;SDS011;333;48.800;9.530;2023-05-29T13:06:13;5.20;;;4.70;;
2259;SDS011;333;48.800;9.530;2023-05-29T13:08:40;5.07;;;4.53;;
2259;SDS011;333;48.800;9.530;2023-05-29T13:11:07;6.20;;;3.73;;
2259;SDS011;333;48.800;9.530;2023-05-29T13:13:35;5.07;;;4.60;;
2259;SDS011;333;48.800;9.530;2023-05-29T13:16:02;6.07;;;5.03;;
2259;SDS011;333;48.800;9.530;2023-05-29T13:18:30;7.40;;;4.90;;
2259;SDS011;333;48.800;9.530;2023-05-29T13:20:59;4.83;;;4.43;;
2259;SDS011;333;48.800;9.530;2023-05-29T13:23:26;4.20;;;3.90;;
2259;SDS011;333;48.800;9.530;2023-05-29T13:25:53;5.33;;;4.80;;
2259;SDS011;333;48.800;9.530;2023-05-29T13:28:20;4.30;;;3.87;;
2259;SDS011;333;48.800;9.530;2023-05-29T13:30:50;4.90;;;4.40;;
2259;SDS011;333;48.800;9.530;2023-05-29T13:33:17;4.07;;;3.77;;
2259;SDS011;333;48.800;9.530;2023-05-29T13:35:44;4.80;;;4.40;;
2259;SDS011;333;48.800;9.530;2023-05-29T13:38:11;5.77;;;4.20;;
2259;SDS011;333;48.800;9.530;2023-05-29T13:40:38;5.17;;;4.07;;
2259;SDS011;333;48.800;9.530;2023-05-29T13:43:05;5.57;;;4.70;;
2259;SDS011;333;48.800;9.530;2023-05-29T13:45:32;4.73;;;4.33;;
2259;SDS011;333;48.800;9.530;2023-05-29T13:48:01;4.63;;;4.23;;
2259;SDS011;333;48.800;9.530;2023-05-29T13:50:28;4.10;;;3.80;;
2259;SDS011;333;48.800;9.530;2023-05-29T13:52:55;4.03;;;3.63;;
2259;SDS011;333;48.800;9.530;2023-05-29T13:55:22;4.80;;;4.20;;
2259;SDS011;333;48.800;9.530;2023-05-29T13:57:49;4.77;;;4.37;;
2259;SDS011;333;48.800;9.530;2023-05-29T14:00:17;5.23;;;4.40;;
2259;SDS011;333;48.800;9.530;2023-05-29T14:02:44;4.63;;;4.23;;
2259;SDS011;333;48.800;9.530;2023-05-29T14:05:13;8.87;;;4.40;;
2259;SDS011;333;48.800;9.530;2023-05-29T14:07:40;4.67;;;4.27;;
2259;SDS011;333;48.800;9.530;2023-05-29T14:10:07;5.50;;;4.60;;
2259;SDS011;333;48.800;9.530;2023-05-29T14:12:35;4.60;;;4.20;;
2259;SDS011;333;48.800;9.530;2023-05-29T14:15:02;4.60;;;4.07;;
2259;SDS011;333;48.800;9.530;2023-05-29T14:17:29;4.60;;;4.30;;
2259;SDS011;333;48.800;9.530;2023-05-29T14:19:57;4.70;;;4.30;;
2259;SDS011;333;48.800;9.530;2023-05-29T14:22:29;4.87;;;4.20;;
2259;SDS011;333;48.800;9.530;2023-05-29T14:24:57;4.80;;;4.30;;
2259;SDS011;333;48.800;9.530;2023-05-29T14:27:25;4.90;;;4.40;;
2259;SDS011;333;48.800;9.530;2023-05-29T14:29:52;4.97;;;4.53;;
2259;SDS011;333;48.800;9.530;2023-05-29T14:32:20;4.90;;;4.47;;
2259;SDS011;333;48.800;9.530;2023-05-29T14:34:47;4.30;;;3.90;;
2259;SDS011;333;48.800;9.530;2023-05-29T14:37:14;5.13;;;4.63;;
2259;SDS011;333;48.800;9.530;2023-05-29T14:39:43;5.43;;;4.30;;
2259;SDS011;333;48.800;9.530;2023-05-29T14:42:10;5.07;;;4.57;;
2259;SDS011;333;48.800;9.530;2023-05-29T14:44:38;4.30;;;3.80;;
2259;SDS011;333;48.800;9.530;2023-05-29T14:47:06;3.90;;;3.60;;
2259;SDS011;333;48.800;9.530;2023-05-29T14:49:33;4.93;;;4.27;;
2259;SDS011;333;48.800;9.530;2023-05-29T14:52:00;4.87;;;4.37;;
2259;SDS011;333;48.800;9.530;2023-05-29T14:54:28;4.37;;;4.07;;
2259;SDS011;333;48.800;9.530;2023-05-29T14:56:56;4.90;;;4.20;;
2259;SDS011;333;48.800;9.530;2023-05-29T14:59:23;7.10;;;4.60;;
2259;SDS011;333;48.800;9.530;2023-05-29T15:01:50;4.87;;;4.37;;
2259;SDS011;333;48.800;9.530;2023-05-29T15:04:18;4.73;;;4.23;;
2259;SDS011;333;48.800;9.530;2023-05-29T15:06:45;6.90;;;4.37;;
2259;SDS011;333;48.800;9.530;2023-05-29T15:09:12;5.10;;;4.70;;
2259;SDS011;333;48.800;9.530;2023-05-29T15:11:39;4.73;;;4.00;;
2259;SDS011;333;48.800;9.530;2023-05-29T15:14:08;5.43;;;4.27;;
2259;SDS011;333;48.800;9.530;2023-05-29T15:16:35;4.53;;;4.13;;
2259;SDS011;333;48.800;9.530;2023-05-29T15:19:02;6.93;;;3.97;;
2259;SDS011;333;48.800;9.530;2023-05-29T15:21:29;4.63;;;4.23;;
2259;SDS011;333;48.800;9.530;2023-05-29T15:23:56;4.43;;;3.73;;
2259;SDS011;333;48.800;9.530;2023-05-29T15:26:23;4.87;;;4.47;;
2259;SDS011;333;48.800;9.530;2023-05-29T15:28:51;4.83;;;4.43;;
2259;SDS011;333;48.800;9.530;2023-05-29T15:31:20;4.13;;;3.83;;
2259;SDS011;333;48.800;9.530;2023-05-29T15:33:47;5.30;;;3.90;;
2259;SDS011;333;48.800;9.530;2023-05-29T15:36:14;4.30;;;3.90;;
2259;SDS011;333;48.800;9.530;2023-05-29T15:38:44;3.37;;;3.07;;
2259;SDS011;333;48.800;9.530;2023-05-29T15:41:11;5.40;;;4.90;;
2259;SDS011;333;48.800;9.530;2023-05-29T15:43:38;4.80;;;4.20;;
2259;SDS011;333;48.800;9.530;2023-05-29T15:46:05;4.17;;;3.87;;